createdAt,value
2019-02-21T00:01:53.374Z,3.50
2019-02-21T00:04:24.029Z,3.50
2019-02-21T00:06:54.670Z,3.50
2019-02-21T00:09:25.370Z,3.50
2019-02-21T00:11:56.042Z,3.50
2019-02-21T00:14:26.754Z,3.40
2019-02-21T00:16:57.462Z,3.40
2019-02-21T00:19:28.197Z,3.50
2019-02-21T00:21:58.883Z,3.50
2019-02-21T00:24:29.599Z,3.40
2019-02-21T00:27:00.255Z,3.30
2019-02-21T00:29:30.990Z,3.30
2019-02-21T00:32:01.678Z,3.20
2019-02-21T00:34:32.345Z,3.20
2019-02-21T00:37:04.042Z,3.20
2019-02-21T00:39:34.750Z,3.20
2019-02-21T00:42:05.453Z,3.30
2019-02-21T00:44:36.139Z,3.30
2019-02-21T00:47:06.816Z,3.30
2019-02-21T00:49:37.573Z,3.30
2019-02-21T00:52:08.299Z,3.20
2019-02-21T00:54:38.981Z,3.30
2019-02-21T00:57:09.643Z,3.30
2019-02-21T00:59:40.357Z,3.30
2019-02-21T01:02:11.059Z,3.30
2019-02-21T01:04:41.664Z,3.20
2019-02-21T01:07:12.396Z,3.10
2019-02-21T01:09:43.063Z,3.10
2019-02-21T01:12:13.759Z,3.00
2019-02-21T01:14:44.426Z,3.00
2019-02-21T01:17:15.081Z,3.00
2019-02-21T01:19:45.778Z,3.00
2019-02-21T01:22:16.474Z,3.00
2019-02-21T01:24:47.155Z,3.00
2019-02-21T01:27:17.858Z,2.90
2019-02-21T01:29:48.547Z,3.10
2019-02-21T01:32:19.254Z,3.00
2019-02-21T01:34:49.925Z,3.10
2019-02-21T01:37:21.746Z,3.00
2019-02-21T01:39:52.428Z,2.90
2019-02-21T01:42:23.156Z,2.80
2019-02-21T01:44:53.861Z,2.80
2019-02-21T01:47:24.579Z,2.80
2019-02-21T01:49:55.293Z,2.70
2019-02-21T01:52:25.969Z,2.70
2019-02-21T01:54:56.647Z,2.70
2019-02-21T01:57:27.372Z,2.70
2019-02-21T01:59:57.978Z,2.90
2019-02-21T02:02:28.674Z,3.00
2019-02-21T02:04:59.341Z,3.20
2019-02-21T02:07:30.037Z,3.30
2019-02-21T02:10:00.696Z,3.30
2019-02-21T02:12:31.439Z,3.20
2019-02-21T02:15:02.106Z,3.20
2019-02-21T02:17:32.834Z,3.20
2019-02-21T02:20:03.557Z,3.00
2019-02-21T02:22:34.264Z,3.00
2019-02-21T02:25:05.081Z,2.90
2019-02-21T02:27:35.678Z,2.80
2019-02-21T02:30:07.231Z,2.80
2019-02-21T02:32:37.891Z,2.70
2019-02-21T02:35:08.786Z,2.70
2019-02-21T02:37:39.465Z,2.70
2019-02-21T02:40:10.190Z,2.80
2019-02-21T02:42:40.919Z,3.00
2019-02-21T02:45:11.631Z,3.10
2019-02-21T02:47:42.257Z,3.20
2019-02-21T02:50:13.035Z,3.30
2019-02-21T02:52:43.770Z,3.30
2019-02-21T02:55:14.478Z,3.20
2019-02-21T02:57:45.162Z,3.10
2019-02-21T03:00:16.176Z,3.10
2019-02-21T03:02:46.847Z,3.10
2019-02-21T03:05:17.555Z,3.10
2019-02-21T03:07:48.247Z,3.00
2019-02-21T03:10:18.914Z,2.90
2019-02-21T03:12:49.640Z,2.80
2019-02-21T03:15:20.358Z,2.80
2019-02-21T03:17:51.043Z,2.80
2019-02-21T03:20:21.789Z,2.70
2019-02-21T03:22:52.472Z,2.70
2019-02-21T03:25:23.203Z,2.70
2019-02-21T03:27:53.918Z,2.70
2019-02-21T03:30:24.627Z,2.70
2019-02-21T03:32:55.321Z,2.70
2019-02-21T03:35:26.094Z,2.60
2019-02-21T03:37:56.849Z,2.60
2019-02-21T03:40:27.610Z,2.70
2019-02-21T03:42:58.315Z,2.80
2019-02-21T03:45:29.101Z,2.80
2019-02-21T03:47:59.868Z,2.70
2019-02-21T03:50:30.658Z,2.80
2019-02-21T03:53:01.413Z,2.80
2019-02-21T03:55:32.118Z,2.80
2019-02-21T03:58:02.892Z,3.00
2019-02-21T04:00:33.618Z,3.10
2019-02-21T04:03:04.565Z,3.10
2019-02-21T04:05:35.301Z,3.10
2019-02-21T04:08:06.091Z,3.20
2019-02-21T04:10:36.833Z,3.20
2019-02-21T04:13:07.610Z,3.30
2019-02-21T04:15:38.328Z,3.30
2019-02-21T04:18:10.423Z,3.30
2019-02-21T04:20:41.198Z,3.30
2019-02-21T04:23:11.966Z,3.30
2019-02-21T04:25:42.751Z,3.20
2019-02-21T04:28:13.477Z,3.10
2019-02-21T04:30:44.244Z,3.10
2019-02-21T04:33:14.990Z,3.00
2019-02-21T04:35:45.755Z,3.10
2019-02-21T04:38:16.543Z,3.00
2019-02-21T04:40:47.302Z,3.00
2019-02-21T04:43:18.115Z,2.90
2019-02-21T04:45:48.882Z,2.90
2019-02-21T04:48:20.536Z,2.90
2019-02-21T04:50:54.270Z,2.90
2019-02-21T04:53:23.711Z,3.00
2019-02-21T04:55:54.505Z,2.90
2019-02-21T04:58:25.272Z,2.90
2019-02-21T05:00:55.998Z,2.90
2019-02-21T05:03:26.726Z,2.90
2019-02-21T05:05:57.520Z,3.00
2019-02-21T05:08:28.252Z,3.00
2019-02-21T05:10:59.015Z,2.90
2019-02-21T05:13:29.750Z,2.90
2019-02-21T05:16:00.475Z,3.00
2019-02-21T05:18:31.233Z,3.00
2019-02-21T05:21:02.025Z,3.00
2019-02-21T05:23:32.753Z,3.10
2019-02-21T05:26:03.673Z,3.00
2019-02-21T05:28:34.467Z,2.90
2019-02-21T05:31:12.598Z,2.90
2019-02-21T05:33:52.162Z,2.80
2019-02-21T05:36:29.560Z,2.70
2019-02-21T05:39:19.279Z,2.70
2019-02-21T05:41:55.587Z,2.60
2019-02-21T05:44:33.667Z,2.60
2019-02-21T05:47:29.053Z,2.60
2019-02-21T05:50:19.729Z,2.70
2019-02-21T05:53:14.925Z,2.70
2019-02-21T05:55:53.569Z,2.70
2019-02-21T05:58:52.302Z,2.60
2019-02-21T06:01:45.016Z,2.70
2019-02-21T06:04:22.353Z,2.70
2019-02-21T06:07:10.921Z,2.70
2019-02-21T06:09:53.974Z,2.70
2019-02-21T06:12:43.671Z,2.70
2019-02-21T06:15:39.436Z,2.80
2019-02-21T06:18:31.895Z,2.80
2019-02-21T06:21:11.654Z,3.00
2019-02-21T06:23:53.432Z,3.00
2019-02-21T06:26:48.914Z,3.20
2019-02-21T06:29:23.903Z,3.30
2019-02-21T06:31:54.615Z,3.40
2019-02-21T06:34:25.315Z,3.50
2019-02-21T06:36:56.049Z,3.60
2019-02-21T06:39:26.801Z,3.70
2019-02-21T06:41:59.918Z,3.70
2019-02-21T06:44:29.914Z,3.90
2019-02-21T06:47:00.636Z,3.90
2019-02-21T06:49:32.849Z,4.00
2019-02-21T06:52:03.958Z,4.00
2019-02-21T06:54:34.684Z,4.20
2019-02-21T06:57:05.421Z,4.30
2019-02-21T06:59:42.503Z,4.30
2019-02-21T07:02:08.575Z,4.50
2019-02-21T07:04:39.290Z,4.60
2019-02-21T07:07:10.077Z,4.90
2019-02-21T07:09:40.793Z,4.90
2019-02-21T07:12:11.528Z,5.00
2019-02-21T07:14:42.244Z,5.10
2019-02-21T07:17:13.041Z,5.10
2019-02-21T07:19:43.777Z,5.20
2019-02-21T07:22:18.038Z,5.20
2019-02-21T07:24:49.041Z,5.20
2019-02-21T07:27:19.817Z,5.20
2019-02-21T07:29:50.557Z,5.20
2019-02-21T07:32:21.278Z,5.30
2019-02-21T07:34:52.056Z,5.30
2019-02-21T07:37:22.791Z,5.40
2019-02-21T07:39:53.527Z,5.40
2019-02-21T07:42:24.276Z,5.50
2019-02-21T07:44:55.091Z,5.60
2019-02-21T07:47:25.776Z,5.70
2019-02-21T07:49:56.512Z,5.80
2019-02-21T07:52:27.240Z,5.90
2019-02-21T07:55:01.697Z,6.00
2019-02-21T07:57:30.343Z,6.10
2019-02-21T08:00:01.081Z,6.10
2019-02-21T08:02:31.763Z,6.20
2019-02-21T08:05:02.551Z,6.20
2019-02-21T08:07:33.276Z,6.30
2019-02-21T08:10:04.101Z,6.40
2019-02-21T08:12:34.848Z,6.50
2019-02-21T08:15:06.123Z,6.60
2019-02-21T08:17:36.950Z,6.50
2019-02-21T08:20:09.399Z,6.50
2019-02-21T08:22:40.152Z,6.60
2019-02-21T08:25:11.119Z,6.70
2019-02-21T08:27:42.587Z,6.90
2019-02-21T08:30:14.904Z,7.20
2019-02-21T08:33:03.396Z,7.50
2019-02-21T08:35:34.159Z,7.60
2019-02-21T08:38:04.885Z,7.70
2019-02-21T08:40:35.632Z,7.80
2019-02-21T08:43:06.377Z,7.90
2019-02-21T08:45:37.103Z,8.10
2019-02-21T08:48:07.851Z,8.10
2019-02-21T08:50:38.647Z,8.10
2019-02-21T08:53:09.472Z,8.20
2019-02-21T08:55:40.534Z,8.20
2019-02-21T08:58:11.224Z,8.00
2019-02-21T09:00:42.281Z,7.80
2019-02-21T09:03:13.037Z,7.60
2019-02-21T09:05:43.774Z,7.50
2019-02-21T09:08:16.613Z,7.40
2019-02-21T09:10:46.909Z,7.30
2019-02-21T09:13:17.622Z,7.30
2019-02-21T09:15:48.270Z,7.30
2019-02-21T09:18:18.945Z,7.20
2019-02-21T09:20:49.663Z,7.30
2019-02-21T09:23:20.541Z,7.30
2019-02-21T09:25:51.277Z,7.40
2019-02-21T09:28:22.071Z,7.70
2019-02-21T09:30:52.878Z,7.80
2019-02-21T09:33:23.690Z,7.90
2019-02-21T09:35:56.769Z,8.00
2019-02-21T09:38:26.826Z,8.00
2019-02-21T09:40:58.183Z,7.80
2019-02-21T09:43:33.342Z,7.80
2019-02-21T09:46:04.056Z,7.80
2019-02-21T09:48:35.832Z,7.80
2019-02-21T09:51:07.303Z,7.90
2019-02-21T09:53:39.463Z,7.90
2019-02-21T09:56:11.636Z,8.20
2019-02-21T09:58:46.290Z,8.40
2019-02-21T10:01:17.129Z,8.70
2019-02-21T10:03:48.037Z,8.80
2019-02-21T10:06:20.060Z,8.90
2019-02-21T10:08:50.926Z,9.10
2019-02-21T10:11:22.691Z,9.20
2019-02-21T10:13:56.411Z,9.40
2019-02-21T10:16:27.145Z,9.30
2019-02-21T10:18:57.852Z,9.30
2019-02-21T10:21:28.618Z,9.30
2019-02-21T10:23:59.374Z,9.40
2019-02-21T10:26:30.070Z,9.80
2019-02-21T10:29:00.798Z,10.10
2019-02-21T10:31:31.522Z,10.50
2019-02-21T10:34:21.930Z,10.70
2019-02-21T10:36:52.770Z,10.80
2019-02-21T10:39:23.508Z,11.00
2019-02-21T10:41:54.184Z,11.00
2019-02-21T10:44:24.949Z,10.90
2019-02-21T10:46:55.677Z,10.90
2019-02-21T10:49:26.392Z,11.10
2019-02-21T10:51:57.137Z,11.30
2019-02-21T10:54:27.794Z,11.50
2019-02-21T10:56:58.529Z,11.70
2019-02-21T10:59:29.256Z,11.90
2019-02-21T11:01:59.892Z,12.00
2019-02-21T11:04:30.687Z,11.90
2019-02-21T11:07:01.406Z,11.60
2019-02-21T11:09:32.151Z,11.50
2019-02-21T11:12:02.868Z,11.40
2019-02-21T11:14:33.628Z,11.40
2019-02-21T11:17:04.281Z,11.30
2019-02-21T11:19:35.047Z,11.50
2019-02-21T11:22:05.754Z,11.90
2019-02-21T11:24:36.489Z,11.90
2019-02-21T11:27:07.236Z,12.00
2019-02-21T11:29:37.992Z,11.80
2019-02-21T11:32:08.728Z,11.50
2019-02-21T11:34:39.407Z,11.50
2019-02-21T11:37:10.155Z,11.50
2019-02-21T11:39:40.838Z,11.60
2019-02-21T11:42:11.573Z,11.70
2019-02-21T11:44:42.251Z,11.90
2019-02-21T11:47:13.037Z,11.80
2019-02-21T11:49:43.753Z,11.60
2019-02-21T11:52:14.528Z,11.20
2019-02-21T11:54:45.177Z,10.90
2019-02-21T11:57:15.991Z,10.70
2019-02-21T11:59:46.707Z,10.60
2019-02-21T12:02:17.476Z,11.00
2019-02-21T12:04:48.140Z,11.80
2019-02-21T12:07:18.836Z,12.60
2019-02-21T12:09:49.535Z,13.00
2019-02-21T12:12:20.129Z,12.90
2019-02-21T12:14:50.835Z,12.70
2019-02-21T12:17:21.563Z,12.40
2019-02-21T12:19:52.278Z,12.00
2019-02-21T12:22:23.024Z,11.70
2019-02-21T12:24:53.780Z,11.60
2019-02-21T12:27:24.513Z,11.80
2019-02-21T12:29:55.233Z,12.20
2019-02-21T12:32:25.959Z,12.20
2019-02-21T12:34:56.666Z,12.00
2019-02-21T12:37:27.406Z,11.70
2019-02-21T12:39:58.128Z,11.30
2019-02-21T12:42:28.796Z,11.00
2019-02-21T12:44:59.452Z,11.00
2019-02-21T12:47:30.101Z,11.20
2019-02-21T12:50:00.874Z,11.50
2019-02-21T12:52:31.722Z,11.80
2019-02-21T12:55:02.466Z,12.60
2019-02-21T12:57:33.202Z,12.80
2019-02-21T13:00:04.083Z,13.30
2019-02-21T13:02:34.798Z,13.50
2019-02-21T13:05:05.581Z,13.20
2019-02-21T13:07:36.308Z,13.80
2019-02-21T13:10:09.706Z,13.70
2019-02-21T13:12:40.472Z,13.70
2019-02-21T13:15:12.317Z,14.30
2019-02-21T13:17:43.065Z,14.70
2019-02-21T13:20:14.082Z,15.40
2019-02-21T13:22:44.818Z,16.20
2019-02-21T13:25:15.675Z,16.40
2019-02-21T13:27:46.359Z,16.30
2019-02-21T13:30:17.095Z,16.40
2019-02-21T13:32:48.002Z,16.70
2019-02-21T13:35:18.919Z,16.90
2019-02-21T13:37:49.734Z,17.30
2019-02-21T13:40:21.314Z,17.60
2019-02-21T13:42:52.368Z,17.70
2019-02-21T13:45:23.324Z,17.50
2019-02-21T13:47:54.200Z,18.10
2019-02-21T13:50:25.163Z,18.70
2019-02-21T13:52:56.053Z,18.20
2019-02-21T13:55:26.890Z,17.50
2019-02-21T13:57:57.929Z,16.80
2019-02-21T14:00:28.882Z,16.90
2019-02-21T14:02:59.838Z,16.50
2019-02-21T14:05:32.085Z,15.00
2019-02-21T14:08:03.032Z,14.30
2019-02-21T14:10:33.988Z,14.00
2019-02-21T14:13:04.908Z,13.40
2019-02-21T14:15:35.843Z,13.00
2019-02-21T14:18:06.799Z,12.70
2019-02-21T14:20:45.481Z,12.50
2019-02-21T14:23:10.190Z,12.40
2019-02-21T14:25:41.369Z,12.20
2019-02-21T14:28:12.245Z,12.20
2019-02-21T14:30:43.242Z,11.90
2019-02-21T14:33:14.145Z,11.70
2019-02-21T14:35:45.136Z,11.70
2019-02-21T14:38:26.991Z,11.50
2019-02-21T14:40:48.606Z,11.50
2019-02-21T14:43:19.578Z,11.60
2019-02-21T14:45:50.499Z,11.60
2019-02-21T14:48:21.435Z,11.80
2019-02-21T14:50:52.381Z,11.80
2019-02-21T14:53:23.430Z,11.80
2019-02-21T14:55:54.333Z,11.70
2019-02-21T14:58:25.289Z,11.70
2019-02-21T15:00:56.217Z,11.60
2019-02-21T15:03:27.132Z,11.50
2019-02-21T15:05:58.108Z,11.50
2019-02-21T15:08:29.024Z,11.50
2019-02-21T15:10:59.991Z,11.30
2019-02-21T15:13:30.927Z,11.20
2019-02-21T15:16:01.904Z,11.20
2019-02-21T15:18:32.799Z,11.20
2019-02-21T15:21:03.738Z,11.20
2019-02-21T15:23:36.966Z,11.30
2019-02-21T15:26:07.269Z,11.10
2019-02-21T15:28:38.225Z,11.10
2019-02-21T15:31:09.162Z,11.00
2019-02-21T15:33:40.070Z,10.90
2019-02-21T15:36:11.014Z,11.00
2019-02-21T15:38:41.990Z,10.90
2019-02-21T15:41:12.867Z,10.90
2019-02-21T15:43:43.856Z,11.00
2019-02-21T15:46:14.771Z,10.90
2019-02-21T15:48:45.763Z,10.80
2019-02-21T15:51:16.973Z,10.80
2019-02-21T15:53:48.416Z,10.80
2019-02-21T15:56:19.346Z,10.80
2019-02-21T15:58:50.533Z,10.70
2019-02-21T16:01:21.408Z,10.70
2019-02-21T16:03:52.371Z,10.70
2019-02-21T16:06:23.350Z,10.60
2019-02-21T16:08:54.296Z,10.60
2019-02-21T16:11:25.244Z,10.60
2019-02-21T16:14:02.955Z,10.60
2019-02-21T16:16:28.942Z,10.60
2019-02-21T16:18:59.968Z,10.50
2019-02-21T16:21:30.810Z,10.50
2019-02-21T16:24:01.853Z,10.50
2019-02-21T16:26:32.814Z,10.50
2019-02-21T16:29:03.814Z,10.50
2019-02-21T16:31:34.775Z,10.40
2019-02-21T16:34:05.727Z,10.30
2019-02-21T16:36:36.687Z,10.20
2019-02-21T16:39:07.753Z,10.10
2019-02-21T16:41:38.720Z,10.10
2019-02-21T16:44:09.687Z,10.10
2019-02-21T16:46:40.623Z,9.90
2019-02-21T16:49:11.569Z,10.00
2019-02-21T16:51:42.525Z,9.90
2019-02-21T16:54:13.432Z,9.80
2019-02-21T16:56:44.399Z,9.80
2019-02-21T16:59:15.387Z,9.70
2019-02-21T17:01:46.323Z,9.70
2019-02-21T17:04:17.307Z,9.60
2019-02-21T17:06:48.243Z,9.60
2019-02-21T17:09:22.150Z,9.50
2019-02-21T17:11:53.029Z,9.40
2019-02-21T17:14:24.053Z,9.40
2019-02-21T17:16:54.980Z,9.30
2019-02-21T17:19:25.907Z,9.20
2019-02-21T17:21:56.823Z,9.10
2019-02-21T17:24:27.788Z,9.00
2019-02-21T17:26:58.684Z,8.90
2019-02-21T17:29:29.631Z,8.90
2019-02-21T17:32:00.517Z,8.90
2019-02-21T17:34:31.483Z,9.00
2019-02-21T17:37:02.431Z,9.00
2019-02-21T17:39:33.388Z,9.00
2019-02-21T17:42:04.256Z,9.10
2019-02-21T17:44:35.199Z,9.10
2019-02-21T17:47:06.136Z,9.10
2019-02-21T17:49:37.051Z,9.20
2019-02-21T17:52:08.171Z,9.20
2019-02-21T17:54:39.101Z,9.20
2019-02-21T17:57:10.040Z,9.20
2019-02-21T17:59:40.947Z,9.20
2019-02-21T18:02:29.587Z,9.10
2019-02-21T18:05:18.722Z,9.10
2019-02-21T18:08:08.212Z,9.10
2019-02-21T18:10:57.284Z,9.00
2019-02-21T18:13:28.248Z,8.70
2019-02-21T18:16:17.266Z,8.50
2019-02-21T18:19:06.388Z,8.20
2019-02-21T18:21:55.658Z,8.00
2019-02-21T18:24:44.209Z,7.80
2019-02-21T18:27:52.414Z,7.60
2019-02-21T18:30:41.075Z,7.40
2019-02-21T18:33:29.617Z,7.30
2019-02-21T18:36:18.268Z,7.20
2019-02-21T18:39:08.208Z,7.10
2019-02-21T18:41:57.519Z,7.00
2019-02-21T18:44:46.348Z,7.00
2019-02-21T18:47:35.606Z,7.00
2019-02-21T18:50:24.713Z,7.00
2019-02-21T18:53:13.890Z,7.00
2019-02-21T18:56:02.981Z,7.00
2019-02-21T18:58:33.998Z,6.90
2019-02-21T19:01:05.154Z,7.00
2019-02-21T19:03:36.053Z,7.00
2019-02-21T19:06:06.887Z,7.00
2019-02-21T19:08:37.733Z,7.10
2019-02-21T19:11:08.663Z,7.10
2019-02-21T19:13:39.518Z,7.10
2019-02-21T19:16:10.406Z,7.10
2019-02-21T19:18:41.389Z,7.00
2019-02-21T19:21:12.255Z,7.00
2019-02-21T19:23:43.161Z,7.00
2019-02-21T19:26:14.048Z,7.00
2019-02-21T19:28:45.035Z,7.10
2019-02-21T19:31:18.601Z,7.10
2019-02-21T19:33:49.497Z,7.10
2019-02-21T19:36:20.423Z,7.10
2019-02-21T19:38:51.320Z,7.00
2019-02-21T19:41:22.358Z,7.00
2019-02-21T19:43:53.222Z,7.00
2019-02-21T19:46:24.151Z,7.10
2019-02-21T19:48:55.076Z,7.20
2019-02-21T19:51:25.922Z,7.20
2019-02-21T19:53:56.899Z,7.20
2019-02-21T19:56:27.774Z,7.30
2019-02-21T19:58:58.662Z,7.40
2019-02-21T20:01:29.547Z,7.40
2019-02-21T20:04:00.554Z,7.40
2019-02-21T20:06:32.519Z,7.40
2019-02-21T20:09:04.858Z,7.50
2019-02-21T20:11:36.033Z,7.60
2019-02-21T20:14:06.969Z,7.60
2019-02-21T20:16:37.847Z,7.70
2019-02-21T20:19:08.743Z,7.80
2019-02-21T20:21:39.619Z,8.00
2019-02-21T20:24:10.527Z,8.10
2019-02-21T20:26:41.422Z,8.30
2019-02-21T20:29:12.377Z,8.30
2019-02-21T20:31:43.264Z,8.20
2019-02-21T20:34:14.170Z,8.30
2019-02-21T20:37:04.101Z,8.20
2019-02-21T20:39:34.997Z,8.20
2019-02-21T20:42:05.984Z,8.30
2019-02-21T20:44:36.884Z,8.30
2019-02-21T20:47:07.765Z,8.40
2019-02-21T20:49:38.622Z,8.50
2019-02-21T20:52:09.549Z,8.50
2019-02-21T20:54:40.438Z,8.60
2019-02-21T20:57:11.343Z,8.60
2019-02-21T20:59:42.180Z,8.70
2019-02-21T21:02:13.198Z,8.60
2019-02-21T21:04:44.041Z,8.60
2019-02-21T21:07:24.584Z,8.70
2019-02-21T21:09:47.375Z,8.70
2019-02-21T21:12:18.260Z,8.70
2019-02-21T21:14:49.076Z,8.70
2019-02-21T21:17:20.023Z,8.70
2019-02-21T21:19:50.879Z,8.60
2019-02-21T21:22:21.736Z,8.60
2019-02-21T21:24:52.582Z,8.60
2019-02-21T21:27:23.468Z,8.70
2019-02-21T21:29:54.336Z,8.70
2019-02-21T21:32:25.252Z,8.60
2019-02-21T21:34:58.778Z,8.60
2019-02-21T21:37:30.485Z,8.70
2019-02-21T21:40:01.764Z,8.70
2019-02-21T21:42:32.760Z,8.60
2019-02-21T21:45:03.594Z,8.60
2019-02-21T21:47:34.420Z,8.60
2019-02-21T21:50:05.918Z,8.50
2019-02-21T21:52:36.886Z,8.50
2019-02-21T21:55:07.793Z,8.60
2019-02-21T21:57:39.117Z,8.70
2019-02-21T22:00:13.055Z,8.70
2019-02-21T22:02:43.929Z,8.70
2019-02-21T22:05:14.836Z,8.70
2019-02-21T22:07:45.872Z,8.70
2019-02-21T22:10:16.898Z,8.60
2019-02-21T22:12:47.759Z,8.60
2019-02-21T22:15:18.651Z,8.60
2019-02-21T22:17:49.539Z,8.60
2019-02-21T22:20:20.414Z,8.60
2019-02-21T22:22:51.249Z,8.50
2019-02-21T22:25:22.158Z,8.50
2019-02-21T22:27:53.013Z,8.50
2019-02-21T22:30:23.950Z,8.50
2019-02-21T22:32:54.806Z,8.50
2019-02-21T22:35:25.692Z,8.50
2019-02-21T22:37:56.549Z,8.50
2019-02-21T22:40:27.445Z,8.50
2019-02-21T22:42:58.301Z,8.50
2019-02-21T22:45:29.188Z,8.50
2019-02-21T22:48:00.073Z,8.50
2019-02-21T22:50:30.951Z,8.50
2019-02-21T22:53:01.898Z,8.50
2019-02-21T22:55:32.783Z,8.40
2019-02-21T22:58:03.629Z,8.50
2019-02-21T23:01:03.923Z,8.40
2019-02-21T23:03:47.692Z,8.50
2019-02-21T23:06:50.705Z,8.40
2019-02-21T23:09:28.019Z,8.40
2019-02-21T23:11:58.352Z,8.40
2019-02-21T23:14:29.908Z,8.30
2019-02-21T23:17:00.816Z,8.30
2019-02-21T23:19:31.730Z,8.40
2019-02-21T23:22:02.617Z,8.40
2019-02-21T23:24:33.455Z,8.40
2019-02-21T23:27:04.309Z,8.40
2019-02-21T23:29:34.255Z,8.40
2019-02-21T23:32:05.065Z,8.40
2019-02-21T23:34:56.583Z,8.40
2019-02-21T23:37:27.461Z,8.40
2019-02-21T23:39:58.347Z,8.40
2019-02-21T23:42:29.225Z,8.40
2019-02-21T23:45:00.945Z,8.30
2019-02-21T23:47:31.775Z,8.30
2019-02-21T23:50:02.631Z,8.30
2019-02-21T23:52:33.538Z,8.30
2019-02-21T23:55:04.425Z,8.20
2019-02-21T23:57:35.320Z,8.20
